Latest Weather Observations for Kingfish B

IDV60801

Issued at 7:32 am EDT Friday 15 December 2017 (issued every 30 minutes, with the page automatically refreshed every 10 minutes)

About weather observations | Map of weather stations | Latest weather observations for VIC | Other Formats
Station Details ID: 400139 Name: KINGFISH B (PLATFORM) Lat: -38.60 Lon: 148.19 Height: 31.4 m
Data from the previous 72 hours. | See also: Recent months for locations in Victoria
Date/Time
EDT
Temp
°C
App
Temp
°C
Dew
Point
°C
Rel
Hum
%
Delta-T
°C
Wind Press
QNH
hPa
Press
MSL
hPa
Rain since
9am
mm
Dir  Spd
km/h
Gust
km/h
Spd
kts
Gust
kts
15/07:30am 18.9 18.0 10.5 58 4.5 SW 6 9 3 5 1013.0 - -
15/07:20am 18.1 17.2 10.5 61 4.1 SW 6 9 3 5 1013.0 - -
15/07:10am 17.2 16.6 10.5 64 3.6 SW 4 6 2 3 1013.0 - -
15/07:00am 16.5 16.0 10.6 68 3.1 SW 4 7 2 4 1013.0 - -
15/06:50am 16.2 15.3 10.6 69 3.0 WSW 6 9 3 5 1013.0 - -
15/06:40am 16.1 15.0 10.7 70 2.9 SW 7 11 4 6 1012.9 - -
15/06:30am 16.3 14.8 10.6 69 3.0 SW 9 13 5 7 1012.9 - -
15/06:20am 16.3 14.8 10.7 69 3.0 SW 9 17 5 9 1012.9 - -
15/06:10am 16.4 14.9 10.6 68 3.1 SW 9 15 5 8 1012.7 - -
15/06:00am 16.5 14.3 10.9 69 3.0 SW 13 19 7 10 1012.6 - -
15/05:50am 16.7 14.2 11.0 69 3.1 SW 15 22 8 12 1012.5 - -
15/05:40am 16.7 13.7 10.5 67 3.3 SW 17 22 9 12 1012.5 - -
15/05:30am 16.9 13.9 10.6 66 3.4 SW 17 20 9 11 1012.4 - -
15/05:20am 16.9 13.6 10.8 67 3.3 SW 19 22 10 12 1012.5 - -
15/05:10am 16.9 14.0 10.9 67 3.2 SW 17 22 9 12 1012.4 - -
15/05:00am 17.0 13.7 10.8 67 3.3 SW 19 22 10 12 1012.3 - -
15/04:50am 17.0 13.5 10.8 67 3.3 SW 20 26 11 14 1012.1 - -
15/04:40am 17.0 12.8 11.1 68 3.2 SW 24 28 13 15 1012.1 - -
15/04:30am 17.0 13.1 10.9 67 3.3 SW 22 30 12 16 1012.0 - -
15/04:20am 17.1 12.8 10.8 66 3.4 SW 24 30 13 16 1012.0 - -
15/04:10am 17.2 12.5 10.7 65 3.5 SW 26 30 14 16 1012.1 - -
15/04:00am 17.2 12.6 10.9 66 3.4 SW 26 32 14 17 1012.1 - -
15/03:50am 17.3 12.7 10.9 66 3.4 SW 26 30 14 16 1012.1 - -
15/03:40am 17.2 12.5 10.8 66 3.4 SW 26 32 14 17 1012.1 - -
15/03:30am 17.3 12.3 11.0 66 3.4 SW 28 33 15 18 1012.1 - -
15/03:20am 17.3 11.9 11.0 66 3.4 SW 30 35 16 19 1012.1 - -
15/03:10am 17.3 11.9 11.0 66 3.4 SW 30 35 16 19 1012.0 - -
15/03:00am 17.4 11.6 10.7 65 3.6 SW 32 35 17 19 1012.2 - -
15/02:50am 17.4 11.6 10.7 65 3.6 SW 32 37 17 20 1012.1 - -
15/02:30am 17.5 12.4 11.8 69 3.1 SW 30 35 16 19 1012.2 - -
15/02:20am 17.6 12.1 11.8 69 3.2 SW 32 39 17 21 1012.1 - -
15/02:10am 17.7 12.7 12.1 69 3.1 SW 30 33 16 18 1012.2 - -
15/02:00am 17.6 12.0 12.2 70 3.0 SW 33 37 18 20 1012.2 - -
15/01:50am 17.7 12.2 12.5 71 2.9 SW 33 39 18 21 1012.1 - -
15/01:40am 17.8 12.3 12.3 70 3.0 WSW 33 39 18 21 1012.1 - -
15/01:30am 17.9 12.6 12.4 70 3.1 WSW 32 37 17 20 1012.2 - -
15/01:20am 17.8 12.3 12.4 70 3.0 WSW 33 39 18 21 1012.1 - -
15/01:10am 17.8 11.9 12.4 70 3.0 WSW 35 44 19 24 1012.2 - -
15/01:00am 17.8 11.5 12.2 70 3.1 WSW 37 44 20 24 1012.2 - -
15/12:50am 17.8 10.7 12.2 70 3.1 WSW 41 48 22 26 1012.0 - -
15/12:40am 18.0 10.3 12.1 68 3.3 SW 44 50 24 27 1011.9 - -
15/12:30am 18.1 10.0 12.1 68 3.3 SW 46 54 25 29 1011.7 - -
15/12:20am 18.1 10.0 12.2 68 3.3 SW 46 52 25 28 1011.7 - -
15/12:10am 18.3 10.9 12.5 69 3.2 SW 43 50 23 27 1011.7 - -
15/12:00am 18.1 10.6 12.2 68 3.3 WSW 43 54 23 29 1011.4 - -
 
Date/Time
EDT
Temp
°C
App
Temp
°C
Dew
Point
°C
Rel
Hum
%
Delta-T
°C
Wind Press
QNH
hPa
Press
MSL
hPa
Rain since
9am
mm
Dir  Spd
km/h
Gust
km/h
Spd
kts
Gust
kts
14/11:50pm 18.2 10.4 11.9 66 3.5 SW 44 52 24 28 1011.5 - -
14/11:40pm 18.1 9.6 11.9 67 3.4 SW 48 56 26 30 1011.5 - -
14/11:30pm 18.1 10.0 12.1 68 3.3 SW 46 56 25 30 1011.2 - -
14/11:20pm 18.1 10.0 12.1 68 3.3 WSW 46 52 25 28 1011.0 - -
14/11:10pm 18.0 10.3 12.2 69 3.2 WSW 44 50 24 27 1011.0 - -
14/11:00pm 18.0 10.9 12.3 69 3.2 WSW 41 50 22 27 1011.0 - -
14/10:50pm 18.1 11.9 12.5 70 3.1 WSW 37 43 20 23 1010.9 - -
14/10:40pm 18.1 11.1 12.6 70 3.1 WSW 41 48 22 26 1010.6 - -
14/10:30pm 18.2 10.9 12.9 71 3.0 SW 43 50 23 27 1010.5 - -
14/10:20pm 18.2 11.3 12.8 71 3.0 SW 41 50 22 27 1010.4 - -
14/10:10pm 18.2 11.3 12.8 71 3.0 WSW 41 48 22 26 1010.2 - -
14/10:00pm 18.3 11.8 12.8 70 3.1 SW 39 44 21 24 1010.4 - -
14/09:50pm 18.3 12.2 12.9 71 3.0 SW 37 44 20 24 1010.2 - -
14/09:40pm 18.4 12.6 12.8 70 3.1 SW 35 43 19 23 1010.2 - -
14/09:30pm 18.4 12.2 12.6 69 3.2 SW 37 44 20 24 1010.1 - -
14/09:20pm 18.6 12.4 12.6 68 3.4 SW 37 44 20 24 1010.0 - -
14/09:10pm 18.7 12.4 12.4 67 3.5 SW 37 48 20 26 1010.0 - -
14/09:00pm 18.7 11.5 12.0 65 3.7 SW 41 48 22 26 1009.7 - -
14/08:50pm 18.8 10.6 11.8 64 3.9 SW 46 54 25 29 1009.5 - -
14/08:40pm 18.8 10.5 11.5 62 4.0 SW 46 52 25 28 1009.4 - -
14/08:30pm 18.8 11.3 12.0 64 3.8 SW 43 54 23 29 1009.4 - -
14/08:20pm 18.8 11.1 12.1 65 3.7 SW 44 50 24 27 1009.2 - -
14/08:10pm 18.7 11.1 12.3 66 3.6 SW 44 52 24 28 1009.0 - -
14/08:00pm 18.8 11.8 12.5 67 3.5 SW 41 48 22 26 1008.9 - -
14/07:50pm 18.8 11.1 12.1 65 3.7 SW 44 52 24 28 1008.8 - -
14/07:40pm 19.0 10.9 12.1 64 3.8 SW 46 54 25 29 1008.6 - -
14/07:30pm 19.0 11.4 12.3 65 3.7 SW 44 52 24 28 1008.6 - -
14/07:20pm 19.1 10.8 12.7 66 3.6 SW 48 59 26 32 1008.3 - -
14/07:10pm 19.2 10.3 13.1 68 3.5 SW 52 61 28 33 1008.1 - -
14/07:00pm 19.3 11.3 13.6 69 3.3 SW 48 57 26 31 1007.9 - -
14/06:50pm 19.2 11.7 13.9 71 3.0 SW 46 54 25 29 1008.1 - -
14/06:40pm 19.3 12.3 14.3 73 2.9 SW 44 54 24 29 1008.1 - -
14/06:30pm 19.7 12.8 14.4 71 3.1 SW 44 52 24 28 1007.9 - -
14/06:20pm 19.5 13.5 14.5 73 2.9 SW 39 44 21 24 1007.8 - -
14/06:10pm 19.8 13.4 14.4 71 3.1 SW 41 48 22 26 1007.5 - -
14/06:00pm 20.1 13.8 14.6 70 3.2 SW 41 50 22 27 1007.4 - -
14/05:50pm 20.3 14.5 14.9 71 3.2 SW 39 44 21 24 1007.3 - -
14/05:40pm 20.4 14.5 14.7 70 3.3 SW 39 48 21 26 1007.2 - -
14/05:30pm 20.6 14.4 15.0 70 3.3 SW 41 48 22 26 1007.0 - -
14/05:20pm 20.7 15.0 15.1 70 3.3 SW 39 46 21 25 1006.9 - -
14/05:10pm 20.9 14.3 14.9 68 3.5 SW 43 52 23 28 1006.6 - -
14/05:00pm 21.0 15.6 15.1 69 3.5 SW 37 46 20 25 1006.5 - -
14/04:50pm 21.0 16.1 15.2 69 3.4 WSW 35 43 19 23 1006.4 - -
14/04:40pm 21.1 16.5 15.2 69 3.5 SW 33 41 18 22 1006.4 - -
14/04:30pm 21.0 15.6 15.1 69 3.5 SW 37 44 20 24 1006.1 - -
14/04:20pm 21.1 15.4 15.1 68 3.5 SW 39 46 21 25 1005.9 - -
14/04:10pm 21.0 15.3 15.2 69 3.4 SW 39 46 21 25 1005.9 - -
14/04:00pm 21.0 14.9 15.1 69 3.5 SW 41 48 22 26 1005.8 - -
14/03:50pm 20.7 13.6 15.0 70 3.4 SW 46 54 25 29 1005.8 - -
14/03:40pm 20.5 13.0 15.0 70 3.2 SW 48 56 26 30 1005.8 - -
14/03:30pm 20.5 12.6 15.0 70 3.2 SW 50 59 27 32 1005.9 - -
14/03:20pm 20.5 11.6 15.2 71 3.1 SW 56 63 30 34 1005.5 - -
14/03:10pm 20.4 12.8 15.7 74 2.8 SW 50 57 27 31 1005.5 - -
14/03:00pm 20.2 12.2 15.8 76 2.6 SW 52 65 28 35 1005.4 - -
14/02:50pm 20.2 11.9 15.8 76 2.6 SW 54 65 29 35 1005.3 - -
14/02:40pm 20.2 11.9 15.8 76 2.6 SW 54 61 29 33 1005.2 - -
14/02:30pm 20.1 11.4 15.9 77 2.5 SW 56 63 30 34 1005.2 - -
14/02:20pm 20.5 11.8 15.9 75 2.8 SW 56 65 30 35 1005.3 - -
14/02:10pm 21.1 12.3 16.0 72 3.1 SW 57 67 31 36 1005.1 - -
14/02:00pm 21.4 12.6 16.1 72 3.2 SW 57 70 31 38 1005.0 - -
14/01:50pm 21.7 13.1 16.1 70 3.4 SW 56 67 30 36 1004.9 - -
14/01:40pm 22.0 13.4 16.0 68 3.6 SW 56 69 30 37 1004.7 - -
14/01:30pm 22.5 15.3 15.9 66 4.0 SW 48 59 26 32 1004.6 - -
14/01:20pm 22.5 16.2 15.7 65 4.1 SW 43 50 23 27 1004.5 - -
14/01:10pm 22.6 17.1 15.7 65 4.1 SW 39 46 21 25 1004.3 - -
14/01:00pm 22.6 17.8 15.7 65 4.1 SW 35 43 19 23 1004.2 - -
14/12:50pm 22.7 18.3 15.7 64 4.2 SW 33 41 18 22 1004.2 - -
14/12:40pm 22.6 18.2 15.7 65 4.1 SW 33 41 18 22 1004.2 - -
14/12:30pm 22.4 18.0 15.6 65 4.1 SW 33 39 18 21 1004.3 - -
14/12:20pm 22.5 18.3 15.6 65 4.1 SW 32 41 17 22 1004.2 - -
14/12:10pm 22.7 18.4 15.5 64 4.3 SW 32 37 17 20 1004.0 - -
14/12:00pm 23.2 19.7 15.5 62 4.6 SW 28 35 15 19 1003.7 - -
14/11:50am 23.3 19.7 15.3 60 4.8 SW 28 33 15 18 1003.6 - -
14/11:40am 23.2 20.3 15.1 60 4.8 SW 24 32 13 17 1003.6 - -
14/11:30am 23.5 20.6 15.1 59 5.0 SW 24 26 13 14 1003.5 - -
14/11:20am 23.6 20.7 15.1 59 5.1 WSW 24 30 13 16 1003.4 - -
14/11:10am 23.6 19.8 14.8 57 5.2 WSW 28 33 15 18 1003.3 - -
14/11:00am 23.6 19.7 14.5 56 5.4 WSW 28 35 15 19 1003.1 - -
14/10:50am 23.9 18.9 14.0 54 5.8 WSW 33 41 18 22 1003.1 - -
14/10:40am 24.5 19.2 13.0 48 6.7 WSW 33 50 18 27 1003.1 - -
14/10:30am 23.9 19.3 14.5 55 5.6 W 32 46 17 25 1003.3 - -
14/10:20am 23.7 20.5 15.3 59 5.0 NNW 26 37 14 20 1001.7 - -
14/10:10am 24.5 21.7 13.3 49 6.5 N 20 30 11 16 1001.1 - -
14/10:00am 23.7 21.0 13.6 53 5.9 N 20 44 11 24 1001.3 - -
14/09:50am 23.4 20.0 13.7 54 5.7 NNW 24 37 13 20 1001.4 - -
14/09:40am 23.2 21.1 14.6 58 5.1 N 19 35 10 19 1001.0 - -
14/09:30am 24.0 22.5 13.0 50 6.4 N 13 24 7 13 1001.0 - -
14/09:20am 24.4 22.0 12.7 48 6.7 WNW 17 24 9 13 1001.9 - -
14/09:10am 23.9 21.0 12.9 50 6.3 W 20 22 11 12 1002.1 - -
14/09:00am 23.7 20.9 13.3 52 6.0 WNW 20 22 11 12 1002.0 - -
14/08:50am 23.5 20.5 13.8 54 5.7 WNW 22 24 12 13 1002.0 - -
14/08:40am 23.3 19.8 14.5 57 5.2 WNW 26 30 14 16 1002.2 - -
14/08:30am 23.0 18.5 15.0 60 4.8 W 32 37 17 20 1002.5 - -
14/08:20am 22.8 19.4 14.7 60 4.8 W 26 35 14 19 1002.3 - -
14/07:50am 22.4 18.6 14.8 62 4.5 W 28 37 15 20 1002.0 - -
14/07:40am 22.1 19.0 14.4 61 4.5 W 24 28 13 15 1001.6 - -
14/07:30am 22.0 17.7 14.5 62 4.4 W 30 33 16 18 1001.7 - -
14/07:00am 22.4 17.3 14.7 61 4.6 W 35 41 19 22 1001.5 - -
14/06:50am 22.4 17.3 14.7 61 4.6 W 35 43 19 23 1001.4 - -
14/06:40am 22.4 17.6 14.7 61 4.6 W 33 41 18 22 1001.4 - -
14/06:30am 22.6 17.4 14.5 60 4.8 W 35 43 19 23 1001.3 - -
14/06:20am 22.8 17.5 14.2 58 5.0 W 35 41 19 22 1001.1 - -
14/06:10am 22.9 17.1 14.0 57 5.2 W 37 44 20 24 1001.0 - -
14/06:00am 22.9 17.2 14.3 58 5.1 W 37 48 20 26 1000.9 - -
14/05:50am 23.3 18.8 13.9 55 5.5 W 30 35 16 19 1000.8 - -
14/05:40am 23.6 19.0 13.5 53 5.9 W 30 32 16 17 1000.6 - -
14/05:30am 24.1 19.2 13.6 52 6.1 WNW 32 35 17 19 1000.5 - -
14/05:20am 24.2 19.4 14.0 53 6.0 WNW 32 37 17 20 1000.4 - -
14/05:10am 23.7 19.0 14.8 57 5.3 NW 33 37 18 20 1000.5 - -
14/05:00am 23.2 17.8 15.0 60 4.9 NW 37 43 20 23 1000.3 - -
14/04:50am 22.6 17.3 15.4 64 4.3 NNW 37 41 20 22 1000.2 - -
14/04:40am 22.2 18.0 16.1 68 3.7 N 33 37 18 20 1000.3 - -
14/04:30am 22.1 17.7 16.6 71 3.4 N 35 37 19 20 1000.4 - -
14/04:20am 21.9 18.1 17.1 74 2.9 N 33 37 18 20 1000.4 - -
14/04:10am 21.9 17.4 17.3 75 2.8 NNE 37 41 20 22 1000.5 - -
14/04:00am 21.9 17.9 17.6 76 2.7 N 35 39 19 21 1000.7 - -
14/03:50am 21.8 17.9 17.8 78 2.5 N 35 39 19 21 1001.0 - -
14/03:40am 21.7 17.8 17.9 79 2.4 NNE 35 39 19 21 1000.9 - -
14/03:30am 21.7 17.1 17.9 79 2.4 NE 39 43 21 23 1000.6 - -
14/03:20am 21.7 16.6 17.8 78 2.4 NE 41 44 22 24 1000.5 - -
14/03:10am 21.8 16.4 17.8 78 2.5 NE 43 48 23 26 1000.5 - -
14/03:00am 21.8 16.2 17.8 78 2.5 NE 44 50 24 27 1000.6 - -
14/02:50am 21.8 16.2 17.8 78 2.5 NE 44 48 24 26 1000.7 - -
14/02:40am 21.9 15.9 17.8 77 2.5 NE 46 50 25 27 1000.9 - -
14/02:30am 22.0 15.9 17.7 76 2.7 NE 46 50 25 27 1001.0 - -
14/02:20am 22.2 16.1 17.6 75 2.8 NE 46 54 25 29 1001.1 - -
14/02:10am 22.3 15.4 17.5 74 3.0 NE 50 56 27 30 1001.1 - -
14/02:00am 22.4 15.5 17.6 74 3.0 NE 50 57 27 31 1001.3 - -
14/01:50am 22.5 15.6 17.5 73 3.1 NE 50 54 27 29 1001.4 - -
14/01:40am 22.7 15.0 17.3 71 3.3 NE 54 61 29 33 1001.5 - -
14/01:30am 23.0 14.8 17.0 69 3.7 NE 56 61 30 33 1001.7 - -
14/01:10am 23.5 15.0 16.4 64 4.3 NE 56 61 30 33 1001.9 - -
14/01:00am 23.8 15.2 16.1 62 4.7 NE 56 61 30 33 1002.1 - -
14/12:50am 24.2 15.8 15.7 59 5.1 NE 54 61 29 33 1002.3 - -
14/12:20am 25.0 15.5 13.7 49 6.6 NE 56 59 30 32 1003.0 - -
14/12:10am 25.2 15.4 13.2 47 7.0 NE 57 61 31 33 1003.2 - -
 
Date/Time
EDT
Temp
°C
App
Temp
°C
Dew
Point
°C
Rel
Hum
%
Delta-T
°C
Wind Press
QNH
hPa
Press
MSL
hPa
Rain since
9am
mm
Dir  Spd
km/h
Gust
km/h
Spd
kts
Gust
kts
13/11:20pm 24.5 15.1 12.6 47 6.9 NE 54 57 29 31 1004.5 - -
13/11:10pm 24.5 15.0 12.5 47 6.9 NE 54 57 29 31 1004.8 - -
13/07:00pm 22.1 19.7 18.2 78 2.4 ENE 28 35 15 19 1005.5 - -
13/06:50pm 22.2 20.0 17.8 76 2.7 ENE 26 33 14 18 1005.5 - -
13/06:40pm 22.0 19.9 18.0 78 2.5 ENE 26 30 14 16 1005.5 - -
13/06:30pm 22.0 19.5 18.1 78 2.4 ENE 28 32 15 17 1005.7 - -
13/06:20pm 22.2 20.4 17.9 76 2.7 ENE 24 28 13 15 1005.7 - -
13/06:10pm 22.1 20.2 17.6 75 2.8 ENE 24 26 13 14 1005.9 - -
13/06:00pm 21.9 20.5 18.0 78 2.4 ENE 22 26 12 14 1006.0 - -
13/05:50pm 21.9 21.0 18.2 79 2.3 ENE 20 24 11 13 1006.2 - -
13/05:40pm 21.8 21.1 18.3 80 2.2 ENE 19 22 10 12 1006.4 - -
13/05:30pm 21.5 21.0 18.6 83 1.8 ENE 19 22 10 12 1006.5 - -
13/05:20pm 21.4 20.3 18.6 84 1.8 ENE 22 26 12 14 1006.7 - -
13/05:10pm 21.4 20.3 18.6 84 1.8 ENE 22 24 12 13 1006.8 - -
13/05:00pm 21.3 20.2 18.7 85 1.6 ENE 22 24 12 13 1006.8 - -
13/04:50pm 21.3 20.7 18.8 86 1.6 ENE 20 22 11 12 1006.9 - -
13/04:30pm 21.1 21.4 18.8 87 1.4 ENE 15 20 8 11 1007.2 - -
13/03:40pm 21.5 22.2 18.8 84 1.7 ENE 13 15 7 8 1007.9 - -
13/03:20pm 20.9 21.8 18.5 86 1.5 ENE 11 13 6 7 1008.1 - -
13/03:10pm 21.0 21.9 18.4 85 1.6 NE 11 13 6 7 1008.3 - -
13/03:00pm 21.0 21.9 18.4 85 1.6 NE 11 13 6 7 1008.4 - -
13/02:50pm 21.1 22.0 18.3 84 1.7 NE 11 13 6 7 1008.5 - -
13/02:40pm 21.2 22.0 18.2 83 1.9 NE 11 13 6 7 1008.7 - -
13/02:20pm 21.5 21.8 17.9 80 2.2 NE 13 17 7 9 1008.9 - -
13/02:00pm 21.7 21.6 17.8 78 2.4 NE 15 15 8 8 1009.1 - -
13/01:00pm 22.0 22.3 17.8 77 2.6 NE 13 15 7 8 1009.8 - -
13/12:50pm 22.1 22.4 17.8 76 2.7 NE 13 15 7 8 1009.9 - -
13/12:40pm 22.2 22.0 17.7 75 2.8 NE 15 17 8 9 1010.0 - -
13/11:50am 21.7 21.5 17.7 78 2.5 NE 15 17 8 9 1010.4 - -
13/11:40am 21.8 21.6 17.7 77 2.5 NE 15 17 8 9 1010.5 - -
13/11:30am 21.8 21.6 17.7 77 2.5 NE 15 17 8 9 1010.4 - -
13/11:20am 21.9 21.7 17.7 77 2.6 NE 15 17 8 9 1010.4 - -
13/11:10am 22.1 21.9 17.6 75 2.8 NE 15 17 8 9 1010.4 - -
13/11:00am 22.1 22.3 17.6 75 2.8 NE 13 15 7 8 1010.7 - -
13/10:50am 22.0 22.5 17.5 75 2.8 NE 11 15 6 8 1010.8 - -
13/10:40am 21.5 22.0 17.4 77 2.5 NE 11 15 6 8 1010.9 - -
13/10:30am 21.4 21.1 17.3 77 2.5 NE 15 17 8 9 1010.9 - -
13/10:20am 21.3 20.9 17.2 77 2.5 NE 15 19 8 10 1011.0 - -
13/10:10am 21.1 20.7 17.2 78 2.4 NE 15 19 8 10 1011.0 - -
13/10:00am 21.0 20.3 17.3 79 2.3 NE 17 20 9 11 1011.1 - -
13/09:50am 21.2 20.5 17.3 78 2.4 NE 17 20 9 11 1011.2 - -
13/09:40am 21.3 20.6 17.4 78 2.4 NE 17 19 9 10 1011.3 - -
13/09:30am 21.0 20.4 17.5 80 2.2 NE 17 19 9 10 1011.3 - -
13/09:20am 20.8 20.6 17.5 81 2.0 NE 15 19 8 10 1011.4 - -
13/09:10am 20.6 20.4 17.5 82 1.9 NE 15 17 8 9 1011.4 - -
13/09:00am 20.3 20.0 17.4 83 1.8 NE 15 17 8 9 1011.5 - -
13/08:50am 20.1 19.8 17.4 84 1.7 NE 15 17 8 9 1011.5 - -
13/08:40am 19.9 20.4 17.4 85 1.5 NNE 11 15 6 8 1011.6 - -
13/08:30am 19.8 20.3 17.4 86 1.5 NNE 11 13 6 7 1011.7 - -
13/08:20am 19.7 19.8 17.4 86 1.4 NE 13 17 7 9 1011.7 - -
13/08:10am 19.6 19.3 17.4 87 1.3 NE 15 19 8 10 1011.7 - -
13/07:40am 19.4 18.3 17.2 87 1.3 NE 19 26 10 14 1011.6 - -
13/07:30am 19.4 17.3 17.2 87 1.3 NE 24 28 13 15 1011.5 - -
13/07:20am 19.3 16.8 17.2 88 1.3 NE 26 30 14 16 1011.4 - -
13/07:10am 19.2 16.8 17.4 89 1.1 NE 26 32 14 17 1011.3 - -
13/07:00am 19.1 16.8 17.5 90 1.0 NE 26 32 14 17 1011.3 - -
13/06:50am 19.1 16.0 17.5 90 1.0 NE 30 35 16 19 1011.2 - -
13/06:40am 19.1 15.1 17.5 90 1.0 NE 35 39 19 21 1011.0 - -
13/06:30am 19.1 15.7 17.6 91 0.9 NE 32 39 17 21 1011.1 - -
13/06:20am 19.0 15.5 17.5 91 0.9 ENE 32 37 17 20 1011.2 - -
13/06:10am 19.1 15.6 17.5 90 1.0 NE 32 37 17 20 1011.3 - -
13/06:00am 19.0 15.9 17.5 91 0.9 NE 30 37 16 20 1011.4 - -
13/05:50am 19.0 15.5 17.5 91 0.9 ENE 32 39 17 21 1011.3 - -
13/05:40am 18.9 15.4 17.5 92 0.9 ENE 32 37 17 20 1011.4 - -
13/05:30am 18.9 15.4 17.4 91 0.9 ENE 32 39 17 21 1011.4 - -
13/05:20am 19.0 15.8 17.3 90 1.0 ENE 30 35 16 19 1011.5 - -
13/05:10am 19.0 16.5 17.2 89 1.1 ENE 26 37 14 20 1011.6 - -
13/05:00am 19.1 16.2 17.1 88 1.2 ENE 28 35 15 19 1011.7 - -
13/04:50am 19.1 17.0 17.1 88 1.2 ENE 24 30 13 16 1011.9 - -
13/04:40am 19.0 16.9 17.1 89 1.2 ENE 24 32 13 17 1011.9 - -
13/04:30am 19.1 17.8 17.2 89 1.2 ENE 20 28 11 15 1012.0 - -
13/04:20am 19.1 17.7 17.1 88 1.2 ENE 20 26 11 14 1012.2 - -
13/04:10am 19.1 17.3 16.9 87 1.3 ENE 22 32 12 17 1012.4 - -
13/04:00am 19.1 17.3 16.9 87 1.3 ENE 22 28 12 15 1012.6 - -
13/03:50am 19.0 16.8 16.8 87 1.3 ENE 24 30 13 16 1012.7 - -
13/03:40am 19.0 17.1 16.8 87 1.3 ENE 22 28 12 15 1012.9 - -
13/03:30am 18.9 17.3 16.4 85 1.5 ENE 20 26 11 14 1013.1 - -
13/03:20am 18.9 18.1 16.2 84 1.6 ENE 15 20 8 11 1013.4 - -
13/03:10am 18.9 18.4 16.0 83 1.7 ENE 13 20 7 11 1013.8 - -
13/03:00am 18.9 18.8 15.9 83 1.8 ENE 11 19 6 10 1014.2 - -
13/02:50am 18.8 18.6 15.6 82 1.9 E 11 15 6 8 1014.5 - -
13/02:40am 18.7 18.8 15.6 82 1.8 ENE 9 15 5 8 1014.6 - -
13/02:30am 18.6 18.7 15.5 82 1.8 ENE 9 17 5 9 1014.6 - -
13/02:20am 18.5 17.1 15.5 83 1.8 ENE 17 20 9 11 1014.5 - -
13/02:00am 18.3 17.0 15.8 85 1.5 ENE 17 22 9 12 1014.6 - -
13/01:50am 18.3 17.8 15.8 85 1.5 ENE 13 17 7 9 1014.7 - -
13/01:40am 18.2 17.6 15.7 85 1.5 ENE 13 19 7 10 1014.8 - -
13/01:30am 18.2 17.6 15.7 85 1.5 ENE 13 19 7 10 1014.9 - -
13/01:10am 18.2 16.4 15.5 84 1.6 ENE 19 22 10 12 1015.0 - -
13/01:00am 18.5 16.4 15.3 81 1.9 ENE 20 24 11 13 1015.1 - -
13/12:50am 19.2 17.2 15.5 79 2.2 NE 20 24 11 13 1015.1 - -
13/12:40am 18.3 15.7 14.9 80 2.0 NE 22 26 12 14 1015.1 - -
13/12:30am 18.1 15.6 15.1 82 1.8 NE 22 26 12 14 1015.2 - -
13/12:20am 18.2 15.3 15.0 81 1.9 NE 24 28 13 15 1015.2 - -
13/12:10am 18.2 15.6 14.9 81 1.9 NE 22 26 12 14 1015.3 - -
13/12:00am 18.2 15.6 14.9 81 1.9 NE 22 26 12 14 1015.4 - -
 
Date/Time
EDT
Temp
°C
App
Temp
°C
Dew
Point
°C
Rel
Hum
%
Delta-T
°C
Wind Press
QNH
hPa
Press
MSL
hPa
Rain since
9am
mm
Dir  Spd
km/h
Gust
km/h
Spd
kts
Gust
kts
12/11:50pm 18.2 16.0 14.8 80 2.0 NE 20 26 11 14 1015.6 - -
12/11:40pm 18.2 15.9 14.7 80 2.0 NE 20 24 11 13 1015.8 - -
12/11:30pm 18.2 15.9 14.7 80 2.0 NE 20 24 11 13 1015.7 - -
12/11:20pm 18.2 15.8 14.5 79 2.1 NE 20 22 11 12 1015.7 - -
12/11:10pm 18.2 16.0 14.3 78 2.2 NE 19 22 10 12 1015.7 - -
12/11:00pm 18.1 15.9 14.3 78 2.2 NE 19 22 10 12 1015.8 - -
12/10:50pm 18.1 16.2 14.2 78 2.2 NE 17 20 9 11 1015.8 - -
12/10:40pm 18.1 16.6 14.2 78 2.2 NE 15 20 8 11 1015.9 - -
12/10:20pm 18.0 16.8 14.0 77 2.3 NE 13 17 7 9 1015.8 - -
12/10:10pm 18.0 16.7 13.8 76 2.4 NE 13 17 7 9 1015.8 - -
12/10:00pm 18.0 17.1 13.8 76 2.4 NE 11 15 6 8 1015.8 - -
12/09:40pm 17.9 16.9 13.4 75 2.5 ENE 11 15 6 8 1015.9 - -
12/09:30pm 18.1 17.4 13.2 73 2.8 ENE 9 15 5 8 1016.0 - -
12/09:20pm 17.9 17.5 13.1 73 2.7 ENE 7 11 4 6 1016.0 - -
12/09:10pm 17.9 17.6 13.2 74 2.6 ENE 7 11 4 6 1016.1 - -
12/09:00pm 18.0 17.8 13.1 73 2.8 ENE 6 7 3 4 1016.1 - -
12/08:50pm 18.2 18.0 12.9 71 3.0 ENE 6 7 3 4 1016.2 - -
12/08:30pm 17.8 17.5 12.8 72 2.8 ENE 6 11 3 6 1016.1 - -
12/08:20pm 17.8 17.6 12.9 73 2.7 ENE 6 9 3 5 1016.1 - -
12/08:10pm 17.7 17.5 12.9 73 2.7 E 6 9 3 5 1016.0 - -
12/08:00pm 17.8 17.9 12.6 71 2.9 E 4 7 2 4 1016.0 - -
12/07:50pm 17.9 17.5 12.4 70 3.1 E 6 7 3 4 1015.9 - -
12/07:40pm 18.2 17.9 12.8 71 3.0 E 6 9 3 5 1015.7 - -
12/07:30pm 17.5 17.2 12.6 73 2.7 E 6 7 3 4 1015.7 - -
12/07:20pm 17.5 17.5 12.4 72 2.8 E 4 9 2 5 1015.8 - -
12/07:10pm 17.4 17.4 12.3 72 2.8 E 4 7 2 4 1015.8 - -
12/07:00pm 17.5 17.9 12.4 72 2.8 ESE 2 7 1 4 1015.9 - -
12/06:50pm 17.5 17.9 12.4 72 2.8 E 2 7 1 4 1015.9 - -
12/06:40pm 17.1 17.5 12.4 74 2.6 E 2 7 1 4 1016.1 - -
12/06:30pm 17.1 17.9 12.4 74 2.6 CALM 0 4 0 2 1016.1 - -
12/06:20pm 17.1 17.9 12.4 74 2.6 CALM 0 6 0 3 1016.1 - -
12/06:10pm 17.2 18.0 12.4 73 2.7 CALM 0 7 0 4 1016.1 - -
12/06:00pm 17.2 17.9 12.3 73 2.7 CALM 0 9 0 5 1016.1 - -
12/05:50pm 17.2 17.9 12.2 72 2.8 CALM 0 6 0 3 1016.1 - -
12/05:40pm 17.2 17.9 12.2 72 2.8 CALM 0 6 0 3 1016.2 - -
12/05:30pm 17.2 17.9 12.2 72 2.8 CALM 0 7 0 4 1016.2 - -
12/05:20pm 17.6 17.9 12.1 70 3.0 S 2 4 1 2 1016.4 - -
12/05:10pm 18.3 19.0 12.1 67 3.4 CALM 0 2 0 1 1016.5 - -
12/05:00pm 18.8 19.5 12.3 66 3.6 CALM 0 0 0 0 1016.5 - -
12/04:50pm 19.2 20.0 12.4 64 3.8 CALM 0 0 0 0 1016.6 - -
12/04:40pm 19.7 20.5 12.5 63 4.0 CALM 0 4 0 2 1016.6 - -
12/04:30pm 20.1 20.4 12.3 61 4.4 NW 2 7 1 4 1016.8 - -
12/04:20pm 20.3 20.3 12.4 60 4.4 NW 4 7 2 4 1016.8 - -
12/04:10pm 20.0 20.0 12.3 61 4.3 NNW 4 6 2 3 1016.7 - -
12/04:00pm 20.0 20.3 12.2 60 4.4 NW 2 6 1 3 1016.7 - -
12/03:50pm 20.5 20.8 12.3 59 4.6 WNW 2 4 1 2 1016.8 - -
12/03:40pm 20.4 20.4 12.3 59 4.5 WNW 4 7 2 4 1016.8 - -
12/03:30pm 20.6 20.1 12.0 57 4.8 WSW 6 9 3 5 1017.0 - -
12/03:20pm 20.8 20.3 12.0 57 4.9 WSW 6 9 3 5 1017.0 - -
12/03:10pm 21.1 20.5 12.2 56 5.0 W 7 13 4 7 1017.1 - -
12/03:00pm 21.4 20.9 12.5 57 5.0 WNW 7 11 4 6 1017.3 - -
12/02:50pm 21.2 20.6 12.2 56 5.1 W 7 9 4 5 1017.5 - -
12/02:40pm 21.2 20.5 12.1 56 5.1 W 7 15 4 8 1017.6 - -
12/02:30pm 21.7 21.0 12.1 54 5.4 WNW 7 15 4 8 1017.4 - -
12/02:20pm 21.6 20.9 12.1 54 5.3 WNW 7 11 4 6 1017.4 - -
12/02:10pm 21.8 21.2 12.3 54 5.4 WNW 7 13 4 7 1017.5 - -
12/02:00pm 21.8 21.1 12.1 54 5.5 W 7 9 4 5 1017.6 - -
12/01:50pm 21.3 20.6 12.1 55 5.2 WNW 7 13 4 7 1017.6 - -
12/01:40pm 21.5 20.9 11.8 54 5.4 W 6 9 3 5 1017.7 - -
12/01:30pm 21.3 20.5 11.7 54 5.4 W 7 9 4 5 1017.7 - -
12/01:20pm 21.4 20.6 11.8 54 5.4 W 7 11 4 6 1017.9 - -
12/01:10pm 21.7 21.0 12.1 54 5.4 WNW 7 11 4 6 1018.0 - -
12/01:00pm 21.6 20.9 11.9 54 5.4 WNW 7 13 4 7 1018.1 - -
12/12:50pm 21.6 20.0 11.6 53 5.6 WNW 11 17 6 9 1018.1 - -
12/12:40pm 21.5 19.9 11.6 53 5.5 WNW 11 15 6 8 1018.2 - -
12/12:30pm 21.4 19.5 11.7 54 5.4 WNW 13 20 7 11 1018.1 - -
12/12:20pm 21.2 19.6 11.4 53 5.4 WNW 11 17 6 9 1018.2 - -
12/12:10pm 21.0 19.3 11.3 54 5.4 WNW 11 15 6 8 1018.1 - -
12/12:00pm 21.1 19.4 11.3 53 5.4 WNW 11 15 6 8 1018.1 - -
12/11:50am 21.2 19.6 11.4 53 5.4 WNW 11 15 6 8 1018.2 - -
12/11:40am 21.5 19.8 11.3 52 5.7 WNW 11 17 6 9 1018.3 - -
12/11:30am 21.6 20.0 11.4 52 5.7 WNW 11 15 6 8 1018.4 - -
12/11:20am 21.7 19.7 11.4 52 5.7 WNW 13 17 7 9 1018.6 - -
12/11:10am 21.3 19.6 11.3 53 5.5 WNW 11 15 6 8 1018.7 - -
12/11:00am 21.3 20.0 11.4 53 5.5 W 9 15 5 8 1018.6 - -
12/10:50am 20.9 18.9 11.5 55 5.2 WNW 13 17 7 9 1018.7 - -
12/10:40am 20.2 18.6 11.6 57 4.8 W 11 17 6 9 1018.8 - -
12/10:30am 20.0 18.4 11.6 58 4.6 W 11 15 6 8 1018.8 - -
12/10:20am 19.8 18.2 11.5 58 4.6 W 11 17 6 9 1018.8 - -
12/10:10am 19.7 17.4 11.6 59 4.5 W 15 19 8 10 1018.9 - -
12/10:00am 19.2 16.8 11.3 60 4.3 WNW 15 20 8 11 1019.0 - -
12/09:50am 18.9 16.8 11.0 60 4.3 W 13 22 7 12 1019.2 - -
12/09:40am 19.1 16.8 11.7 62 4.1 W 15 22 8 12 1019.1 - -
12/09:30am 19.0 16.7 11.7 62 4.0 W 15 22 8 12 1019.1 - -
12/09:20am 18.5 16.0 11.1 62 4.0 W 15 20 8 11 1019.0 - -
12/09:10am 18.2 15.8 11.3 64 3.8 W 15 22 8 12 1019.0 - -
12/09:00am 18.1 15.3 11.3 64 3.7 W 17 20 9 11 1018.9 - -
12/08:50am 17.8 15.0 11.3 65 3.5 W 17 22 9 12 1018.9 - -
12/08:40am 18.1 15.8 11.7 66 3.5 W 15 19 8 10 1018.8 - -
12/08:30am 18.8 16.5 11.9 64 3.8 W 15 19 8 10 1018.6 - -
12/08:20am 18.3 16.3 11.4 64 3.8 W 13 19 7 10 1018.5 - -
12/08:10am 18.2 15.3 10.9 62 3.9 W 17 22 9 12 1018.4 - -
12/08:00am 18.0 15.6 11.3 65 3.6 W 15 22 8 12 1018.3 - -
12/07:50am 18.4 16.8 11.4 63 3.8 W 11 19 6 10 1018.3 - -
12/07:40am 18.9 17.3 11.6 62 4.0 W 11 15 6 8 1018.2 - -

Other Formats:

Comma delimited format used in spreadsheet applications
http://www.bom.gov.au/fwo/IDV60801/IDV60801.55039.axf

JavaScript Object Notation format (JSON) in row-major order
http://www.bom.gov.au/fwo/IDV60801/IDV60801.55039.json